www.hobby-wetter-faasend.de
Wetterdaten: aktuell Mittwoch, 19.12.2018 09:00
Datum Zeit Temp. A. Temp. A. min Temp. A. max Feuchte A. Luftdruck Regen Wind Richtung Richtung Sonnenschein Taupunkt Windchill Windben
19.12.2018 09:00 7,3 C 7,2 C 7,3 C 94 % 1015,5 hPa 0,0 l/m 0,5 km/h (0 Bft) S 174 0 min 6,4 C 7,3 C 9,7 km/h (2 Bft)
19.12.2018 08:45 7,2 C 7,1 C 7,2 C 94 % 1015,5 hPa 0,0 l/m 0,6 km/h (0 Bft) SO 146 0 min 6,3 C 7,2 C 8,0 km/h (2 Bft)
19.12.2018 08:30 7,1 C 7,0 C 7,1 C 94 % 1015,4 hPa 0,0 l/m 1,0 km/h (0 Bft) S 186 0 min 6,2 C 7,1 C 9,7 km/h (2 Bft)
19.12.2018 08:15 7,0 C 7,0 C 7,0 C 94 % 1015,2 hPa 0,0 l/m 1,3 km/h (1 Bft) S-SO 162 0 min 6,1 C 7,0 C 11,3 km/h (2 Bft)
19.12.2018 08:00 7,0 C 6,9 C 7,0 C 93 % 1015,2 hPa 0,0 l/m 4,1 km/h (1 Bft) S-SO 167 0 min 5,9 C 7,0 C 12,9 km/h (3 Bft)
19.12.2018 07:45 6,9 C 6,8 C 6,9 C 93 % 1015,2 hPa 0,0 l/m 5,4 km/h (1 Bft) S-SO 160 0 min 5,8 C 6,9 C 17,7 km/h (3 Bft)
19.12.2018 07:30 6,8 C 6,8 C 6,8 C 93 % 1015,2 hPa 0,0 l/m 5,4 km/h (1 Bft) S-SO 162 0 min 5,7 C 6,8 C 14,5 km/h (3 Bft)
19.12.2018 07:15 6,8 C 6,7 C 6,8 C 93 % 1015,3 hPa 0,0 l/m 4,9 km/h (1 Bft) S 182 0 min 5,7 C 6,8 C 16,1 km/h (3 Bft)
19.12.2018 07:00 6,7 C 6,6 C 6,7 C 93 % 1015,1 hPa 0,0 l/m 4,6 km/h (1 Bft) S 182 0 min 5,6 C 6,7 C 16,1 km/h (3 Bft)
19.12.2018 06:45 6,7 C 6,5 C 6,7 C 93 % 1015,0 hPa 0,0 l/m 4,7 km/h (1 Bft) S 176 0 min 5,6 C 6,7 C 17,7 km/h (3 Bft)
19.12.2018 06:30 6,5 C 6,4 C 6,5 C 93 % 1014,9 hPa 0,2 l/m 3,7 km/h (1 Bft) S 174 0 min 5,5 C 6,5 C 12,9 km/h (3 Bft)
19.12.2018 06:15 6,4 C 6,3 C 6,4 C 93 % 1014,8 hPa 0,0 l/m 3,2 km/h (1 Bft) S-SO 164 0 min 5,4 C 6,4 C 12,9 km/h (3 Bft)
19.12.2018 06:00 6,3 C 6,2 C 6,3 C 92 % 1014,7 hPa 0,0 l/m 2,5 km/h (1 Bft) O-SO 120 0 min 5,1 C 6,3 C 9,7 km/h (2 Bft)
19.12.2018 05:45 6,2 C 6,1 C 6,2 C 92 % 1014,6 hPa 0,4 l/m 3,3 km/h (1 Bft) S-SO 167 0 min 5,0 C 6,2 C 9,7 km/h (2 Bft)
19.12.2018 05:30 6,1 C 5,8 C 6,1 C 92 % 1014,7 hPa 0,0 l/m 2,1 km/h (1 Bft) S-SO 153 0 min 4,9 C 6,1 C 8,0 km/h (2 Bft)
19.12.2018 05:15 5,8 C 5,6 C 5,8 C 91 % 1014,7 hPa 0,2 l/m 1,2 km/h (1 Bft) S 171 0 min 4,4 C 5,8 C 6,4 km/h (2 Bft)
19.12.2018 05:00 5,6 C 5,6 C 5,7 C 90 % 1014,8 hPa 0,0 l/m 1,0 km/h (0 Bft) SO 139 0 min 4,1 C 5,6 C 6,4 km/h (2 Bft)
19.12.2018 04:45 5,6 C 5,4 C 5,6 C 89 % 1015,0 hPa 0,2 l/m 0,3 km/h (0 Bft) S-SO 161 0 min 3,9 C 5,6 C 6,4 km/h (2 Bft)
19.12.2018 04:30 5,4 C 5,2 C 5,4 C 89 % 1015,1 hPa 0,2 l/m 0,7 km/h (0 Bft) S 179 0 min 3,7 C 5,4 C 14,5 km/h (3 Bft)
19.12.2018 04:15 5,2 C 5,1 C 5,2 C 87 % 1015,2 hPa 0,2 l/m 0,7 km/h (0 Bft) S 169 0 min 3,2 C 5,2 C 8,0 km/h (2 Bft)
19.12.2018 04:00 5,1 C 5,0 C 5,1 C 86 % 1015,2 hPa 0,0 l/m 0,2 km/h (0 Bft) S 171 0 min 3,0 C 5,1 C 6,4 km/h (2 Bft)
19.12.2018 03:45 5,0 C 4,8 C 5,0 C 85 % 1015,2 hPa 0,0 l/m 0,9 km/h (0 Bft) S 171 0 min 2,7 C 5,0 C 6,4 km/h (2 Bft)
19.12.2018 03:30 4,9 C 4,8 C 4,9 C 83 % 1015,3 hPa 0,0 l/m 0,4 km/h (0 Bft) S 175 0 min 2,3 C 4,9 C 4,8 km/h (1 Bft)
19.12.2018 03:15 4,8 C 4,8 C 4,8 C 82 % 1015,4 hPa 0,0 l/m 0,3 km/h (0 Bft) S 175 0 min 2,0 C 4,8 C 6,4 km/h (2 Bft)
19.12.2018 03:00 4,8 C 4,8 C 4,9 C 81 % 1015,4 hPa 0,0 l/m 0,1 km/h (0 Bft) S 170 0 min 1,8 C 4,8 C 6,4 km/h (2 Bft)
19.12.2018 02:45 4,9 C 4,8 C 4,9 C 80 % 1015,4 hPa 0,0 l/m 0,1 km/h (0 Bft) S 170 0 min 1,7 C 4,9 C 3,2 km/h (1 Bft)
19.12.2018 02:30 4,9 C 4,9 C 5,0 C 79 % 1015,3 hPa 0,0 l/m 0,0 km/h (0 Bft) S 170 0 min 1,6 C 4,9 C 1,6 km/h (1 Bft)
19.12.2018 02:15 5,0 C 5,0 C 5,1 C 83 % 1015,1 hPa 0,0 l/m 0,0 km/h (0 Bft) S-SO 167 0 min 2,4 C 5,0 C 0,0 km/h (0 Bft)
19.12.2018 02:00 5,0 C 5,0 C 5,1 C 78 % 1015,2 hPa 0,0 l/m 0,5 km/h (0 Bft) S-SO 163 0 min 1,5 C 5,0 C 8,0 km/h (2 Bft)
19.12.2018 01:45 5,0 C 4,9 C 5,0 C 78 % 1015,1 hPa 0,0 l/m 1,5 km/h (1 Bft) S 175 0 min 1,5 C 5,0 C 12,9 km/h (3 Bft)
19.12.2018 01:30 4,9 C 4,8 C 4,9 C 78 % 1015,1 hPa 0,0 l/m 1,5 km/h (1 Bft) S-SW 204 0 min 1,4 C 4,9 C 12,9 km/h (3 Bft)
19.12.2018 01:15 4,8 C 4,4 C 4,8 C 79 % 1015,3 hPa 0,0 l/m 3,2 km/h (1 Bft) S-SO 162 0 min 1,5 C 4,8 C 12,9 km/h (3 Bft)
19.12.2018 01:00 4,4 C 4,0 C 4,4 C 81 % 1015,3 hPa 0,0 l/m 4,1 km/h (1 Bft) S-SO 147 0 min 1,4 C 4,4 C 11,3 km/h (2 Bft)
19.12.2018 00:45 4,0 C 3,8 C 4,0 C 83 % 1015,2 hPa 0,0 l/m 2,0 km/h (1 Bft) S 171 0 min 1,4 C 4,0 C 8,0 km/h (2 Bft)
19.12.2018 00:30 3,8 C 3,6 C 3,8 C 84 % 1015,5 hPa 0,0 l/m 0,1 km/h (0 Bft) O-SO 121 0 min 1,4 C 3,8 C 3,2 km/h (1 Bft)
19.12.2018 00:15 3,6 C 3,1 C 3,6 C 86 % 1015,6 hPa 0,0 l/m 0,8 km/h (0 Bft) O-SO 117 0 min 1,5 C 3,6 C 6,4 km/h (2 Bft)
19.12.2018 00:00 3,1 C 2,9 C 3,1 C 88 % 1015,5 hPa 0,0 l/m 0,4 km/h (0 Bft) SO 138 0 min 1,3 C 3,1 C 9,7 km/h (2 Bft)
18.12.2018 23:45 2,9 C 2,5 C 2,9 C 89 % 1015,7 hPa 0,0 l/m 0,4 km/h (0 Bft) S 181 0 min 1,3 C 2,9 C 3,2 km/h (1 Bft)
18.12.2018 23:30 2,5 C 2,1 C 2,5 C 90 % 1015,8 hPa 0,0 l/m 0,1 km/h (0 Bft) S 180 0 min 1,0 C 2,5 C 3,2 km/h (1 Bft)
18.12.2018 23:15 2,1 C 1,8 C 2,1 C 91 % 1016,1 hPa 0,0 l/m 0,0 km/h (0 Bft) S 180 0 min 0,8 C 2,1 C 0,0 km/h (0 Bft)
18.12.2018 23:00 1,8 C 1,6 C 1,8 C 91 % 1016,2 hPa 0,0 l/m 0,1 km/h (0 Bft) S 180 0 min 0,5 C 1,8 C 3,2 km/h (1 Bft)
18.12.2018 22:45 1,6 C 1,3 C 1,6 C 90 % 1016,3 hPa 0,0 l/m 0,5 km/h (0 Bft) S 181 0 min 0,1 C 1,6 C 4,8 km/h (1 Bft)
18.12.2018 22:30 1,3 C 1,3 C 1,3 C 89 % 1016,3 hPa 0,0 l/m 0,0 km/h (0 Bft) S 175 0 min -0,3 C 1,3 C 1,6 km/h (1 Bft)
18.12.2018 22:15 1,3 C 1,3 C 1,3 C 88 % 1016,3 hPa 0,0 l/m 0,0 km/h (0 Bft) S 175 0 min -0,5 C 1,3 C 1,6 km/h (1 Bft)
18.12.2018 22:00 1,3 C 1,3 C 1,5 C 87 % 1016,5 hPa 0,0 l/m 0,0 km/h (0 Bft) S 175 0 min -0,6 C 1,3 C 1,6 km/h (1 Bft)
18.12.2018 21:45 1,5 C 1,5 C 1,8 C 87 % 1016,7 hPa 0,0 l/m 0,0 km/h (0 Bft) S 175 0 min -0,4 C 1,5 C 0,0 km/h (0 Bft)
18.12.2018 21:30 1,8 C 1,8 C 2,1 C 86 % 1016,9 hPa 0,0 l/m 0,0 km/h (0 Bft) S 175 0 min -0,3 C 1,8 C 0,0 km/h (0 Bft)
18.12.2018 21:15 2,1 C 2,1 C 2,4 C 85 % 1017,0 hPa 0,0 l/m 0,0 km/h (0 Bft) S 175 0 min -0,2 C 2,1 C 0,0 km/h (0 Bft)
18.12.2018 21:00 2,4 C 2,4 C 2,6 C 85 % 1016,9 hPa 0,0 l/m 0,0 km/h (0 Bft) S 175 0 min 0,1 C 2,4 C 1,6 km/h (1 Bft)
18.12.2018 20:45 2,6 C 2,6 C 2,7 C 85 % 1017,0 hPa 0,0 l/m 0,1 km/h (0 Bft) S 175 0 min 0,3 C 2,6 C 4,8 km/h (1 Bft)
18.12.2018 20:30 2,6 C 2,6 C 2,6 C 86 % 1017,1 hPa 0,0 l/m 0,3 km/h (0 Bft) S 175 0 min 0,5 C 2,6 C 3,2 km/h (1 Bft)
18.12.2018 20:15 2,6 C 2,4 C 2,6 C 86 % 1017,1 hPa 0,0 l/m 1,2 km/h (1 Bft) S-SO 168 0 min 0,5 C 2,6 C 9,7 km/h (2 Bft)
18.12.2018 20:00 2,4 C 2,3 C 2,4 C 87 % 1017,3 hPa 0,0 l/m 1,2 km/h (1 Bft) S-SO 166 0 min 0,5 C 2,4 C 8,0 km/h (2 Bft)
18.12.2018 19:45 2,3 C 2,3 C 2,4 C 87 % 1017,5 hPa 0,0 l/m 0,6 km/h (0 Bft) S 186 0 min 0,4 C 2,3 C 4,8 km/h (1 Bft)
18.12.2018 19:30 2,4 C 2,4 C 2,7 C 86 % 1017,3 hPa 0,0 l/m 0,0 km/h (0 Bft) S 177 0 min 0,3 C 2,4 C 1,6 km/h (1 Bft)
18.12.2018 19:15 2,7 C 2,7 C 2,8 C 86 % 1017,7 hPa 0,0 l/m 0,0 km/h (0 Bft) S 177 0 min 0,6 C 2,7 C 1,6 km/h (1 Bft)
18.12.2018 19:00 2,8 C 2,8 C 3,1 C 85 % 1018,0 hPa 0,0 l/m 0,0 km/h (0 Bft) S 177 0 min 0,5 C 2,8 C 1,6 km/h (1 Bft)
18.12.2018 18:45 3,1 C 3,1 C 3,3 C 85 % 1018,3 hPa 0,0 l/m 0,0 km/h (0 Bft) S 177 0 min 0,8 C 3,1 C 0,0 km/h (0 Bft)
18.12.2018 18:30 3,3 C 3,3 C 3,6 C 84 % 1018,4 hPa 0,0 l/m 0,0 km/h (0 Bft) S 177 0 min 0,9 C 3,3 C 1,6 km/h (1 Bft)
18.12.2018 18:15 3,6 C 3,6 C 3,8 C 84 % 1018,6 hPa 0,0 l/m 0,0 km/h (0 Bft) S 177 0 min 1,2 C 3,6 C 0,0 km/h (0 Bft)
18.12.2018 18:00 3,8 C 3,8 C 4,1 C 84 % 1018,9 hPa 0,0 l/m 0,5 km/h (0 Bft) S 177 0 min 1,4 C 3,8 C 6,4 km/h (2 Bft)
18.12.2018 17:45 4,1 C 4,1 C 4,3 C 83 % 1018,9 hPa 0,0 l/m 0,1 km/h (0 Bft) SO 142 0 min 1,5 C 4,1 C 3,2 km/h (1 Bft)
18.12.2018 17:30 4,3 C 4,3 C 4,6 C 82 % 1019,0 hPa 0,0 l/m 0,3 km/h (0 Bft) SO 138 0 min 1,5 C 4,3 C 8,0 km/h (2 Bft)
18.12.2018 17:15 4,6 C 4,6 C 4,8 C 82 % 1019,1 hPa 0,0 l/m 1,0 km/h (0 Bft) S-SO 164 0 min 1,8 C 4,6 C 9,7 km/h (2 Bft)
18.12.2018 17:00 4,8 C 4,8 C 5,2 C 81 % 1019,0 hPa 0,0 l/m 1,3 km/h (1 Bft) S-SO 154 0 min 1,8 C 4,8 C 11,3 km/h (2 Bft)
18.12.2018 16:45 5,2 C 5,2 C 5,6 C 80 % 1019,4 hPa 0,0 l/m 0,5 km/h (0 Bft) SO 138 0 min 2,0 C 5,2 C 6,4 km/h (2 Bft)
18.12.2018 16:30 5,6 C 5,6 C 5,8 C 80 % 1019,6 hPa 0,0 l/m 1,7 km/h (1 Bft) S 175 0 min 2,4 C 5,6 C 9,7 km/h (2 Bft)
18.12.2018 16:15 5,8 C 5,8 C 6,1 C 79 % 1019,3 hPa 0,0 l/m 0,6 km/h (0 Bft) S-SO 157 0 min 2,4 C 5,8 C 6,4 km/h (2 Bft)
18.12.2018 16:00 6,1 C 6,1 C 6,4 C 79 % 1019,3 hPa 0,0 l/m 2,0 km/h (1 Bft) O 94 0 min 2,7 C 6,1 C 9,7 km/h (2 Bft)
18.12.2018 15:45 6,4 C 6,4 C 6,7 C 78 % 1019,5 hPa 0,0 l/m 1,6 km/h (1 Bft) S 172 0 min 2,8 C 6,4 C 12,9 km/h (3 Bft)
18.12.2018 15:30 6,7 C 6,7 C 7,1 C 77 % 1019,6 hPa 0,0 l/m 3,2 km/h (1 Bft) SO 143 0 min 3,0 C 6,7 C 17,7 km/h (3 Bft)
18.12.2018 15:15 7,1 C 7,1 C 7,6 C 76 % 1019,8 hPa 0,0 l/m 5,3 km/h (1 Bft) O-SO 115 15 min 3,2 C 7,1 C 20,9 km/h (4 Bft)
18.12.2018 15:00 7,6 C 7,6 C 7,9 C 75 % 1020,0 hPa 0,0 l/m 3,3 km/h (1 Bft) O-SO 102 15 min 3,5 C 7,6 C 16,1 km/h (3 Bft)
18.12.2018 14:45 7,9 C 7,9 C 8,0 C 74 % 1020,4 hPa 0,0 l/m 5,2 km/h (1 Bft) S-SW 202 15 min 3,6 C 7,9 C 17,7 km/h (3 Bft)
18.12.2018 14:30 7,9 C 7,7 C 8,0 C 75 % 1020,6 hPa 0,0 l/m 2,8 km/h (1 Bft) SO 142 15 min 3,7 C 7,9 C 11,3 km/h (2 Bft)
18.12.2018 14:15 7,7 C 7,6 C 7,7 C 78 % 1020,7 hPa 0,0 l/m 4,1 km/h (1 Bft) SO 129 15 min 4,1 C 7,7 C 14,5 km/h (3 Bft)
18.12.2018 14:00 7,6 C 7,3 C 7,6 C 78 % 1020,9 hPa 0,0 l/m 4,8 km/h (1 Bft) S-SO 161 15 min 4,0 C 7,6 C 16,1 km/h (3 Bft)
18.12.2018 13:45 7,3 C 7,1 C 7,3 C 79 % 1021,4 hPa 0,0 l/m 7,6 km/h (2 Bft) S 171 15 min 3,9 C 6,3 C 22,5 km/h (4 Bft)
18.12.2018 13:30 7,1 C 6,9 C 7,1 C 81 % 1021,7 hPa 0,0 l/m 4,0 km/h (1 Bft) O-SO 110 15 min 4,1 C 7,1 C 14,5 km/h (3 Bft)
18.12.2018 13:15 6,9 C 6,8 C 6,9 C 84 % 1021,9 hPa 0,0 l/m 3,0 km/h (1 Bft) S-SW 212 15 min 4,4 C 6,9 C 12,9 km/h (3 Bft)
18.12.2018 13:00 6,8 C 6,8 C 6,9 C 85 % 1022,1 hPa 0,0 l/m 3,8 km/h (1 Bft) O-NO 59 15 min 4,5 C 6,8 C 12,9 km/h (3 Bft)
18.12.2018 12:45 6,8 C 6,2 C 6,8 C 90 % 1022,4 hPa 0,0 l/m 2,3 km/h (1 Bft) S 174 15 min 5,3 C 6,8 C 9,7 km/h (2 Bft)
18.12.2018 12:30 6,2 C 5,9 C 6,2 C 94 % 1022,9 hPa 0,0 l/m 1,5 km/h (1 Bft) O 92 15 min 5,3 C 6,2 C 8,0 km/h (2 Bft)
18.12.2018 12:15 5,9 C 5,5 C 5,9 C 95 % 1023,1 hPa 0,0 l/m 1,2 km/h (1 Bft) O 97 15 min 5,2 C 5,9 C 9,7 km/h (2 Bft)
18.12.2018 12:00 5,5 C 5,1 C 5,5 C 96 % 1023,2 hPa 0,0 l/m 0,6 km/h (0 Bft) S-SO 148 15 min 4,9 C 5,5 C 8,0 km/h (2 Bft)
18.12.2018 11:45 5,1 C 4,7 C 5,1 C 96 % 1023,6 hPa 0,0 l/m 0,7 km/h (0 Bft) SO 128 15 min 4,5 C 5,1 C 9,7 km/h (2 Bft)
18.12.2018 11:30 4,7 C 4,1 C 4,7 C 96 % 1023,9 hPa 0,0 l/m 0,0 km/h (0 Bft) S 177 15 min 4,1 C 4,7 C 0,0 km/h (0 Bft)
18.12.2018 11:15 4,1 C 3,4 C 4,1 C 96 % 1024,0 hPa 0,0 l/m 0,0 km/h (0 Bft) S 178 15 min 3,5 C 4,1 C 0,0 km/h (0 Bft)
18.12.2018 11:00 3,4 C 2,7 C 3,4 C 96 % 1024,5 hPa 0,0 l/m 0,0 km/h (0 Bft) S 178 15 min 2,8 C 3,4 C 0,0 km/h (0 Bft)
18.12.2018 10:45 2,7 C 1,8 C 2,7 C 96 % 1024,7 hPa 0,0 l/m 0,0 km/h (0 Bft) S 178 15 min 2,1 C 2,7 C 0,0 km/h (0 Bft)
18.12.2018 10:30 1,8 C 1,3 C 1,8 C 96 % 1024,9 hPa 0,0 l/m 0,0 km/h (0 Bft) S 178 15 min 1,2 C 1,8 C 0,0 km/h (0 Bft)
18.12.2018 10:15 1,3 C 1,0 C 1,3 C 95 % 1025,2 hPa 0,0 l/m 0,0 km/h (0 Bft) S 178 15 min 0,6 C 1,3 C 0,0 km/h (0 Bft)
18.12.2018 10:00 1,1 C 0,8 C 1,1 C 95 % 1025,4 hPa 0,0 l/m 0,0 km/h (0 Bft) S 178 15 min 0,4 C 1,1 C 0,0 km/h (0 Bft)
_ Min-Zeit 10:00 10:00 10:00 14:45 05:45 - 10:00 - - - 22:00 10:00 10:00
Minimum _ 1,1 C 0,8 C 1,1 C 74 % 1014,6 hPa - 0,0 km/h (0 Bft) - - - -0,6 C 1,1 C 0,0 km/h (0 Bft)
_ Max-Zeit 14:30 14:45 14:30 10:30 10:00 05:45 13:45 - - 10:00 09:00 14:30 13:45
Maximum _ 8,0 C 7,9 C 8,0 C 96 % 1025,4 hPa 0,4 l/m 7,6 km/h
S (2 Bft)
- - 15 min 6,4 C 7,9 C 22,5 km/h
S (4 Bft)
Durchschnitt _ 4,5 C 4,3 C 4,6 C 87 % 1018,4 hPa #1,4 l/m 1,3 km/h (1 Bft) S-SO - #0 min. 2,5 C 4,5 C 7,1 km/h (2 Bft)